Time;durP1;ratioP1;P1;durP2;ratioP2;P2;SDS_P1;SDS_P2;PMS_P1;PMS_P2;Temp;Humidity;BMP_temperature;BMP_pressure;BME280_temperature;BME280_humidity;BME280_pressure;Samples;Min_cycle;Max_cycle;Signal;HPM_P1;HPM_P2
2023/07/28 00:01:26;;;;;;;3.75;3.55;;;18.20;99.90;;;;;;5054976;28;20628;-80
2023/07/28 00:03:51;;;;;;;4.13;3.83;;;18.20;99.90;;;;;;5056168;28;20184;-83
2023/07/28 00:06:17;;;;;;;4.45;4.10;;;18.30;99.90;;;;;;5058082;28;20176;-82
2023/07/28 00:08:42;;;;;;;4.70;4.30;;;18.20;99.90;;;;;;5056547;28;20227;-81
2023/07/28 00:11:13;;;;;;;8.45;4.55;;;18.20;99.90;;;;;;5055983;28;20260;-82
2023/07/28 00:13:39;;;;;;;8.35;5.93;;;18.20;99.90;;;;;;5056608;28;20311;-82
2023/07/28 00:16:06;;;;;;;6.88;6.38;;;18.30;99.90;;;;;;5055560;28;20173;-81
2023/07/28 00:18:31;;;;;;;5.32;4.82;;;18.30;99.90;;;;;;5056162;28;20177;-81
2023/07/28 00:20:57;;;;;;;4.68;4.00;;;18.30;99.90;;;;;;5056332;28;20237;-83
2023/07/28 00:23:23;;;;;;;5.10;4.78;;;18.30;99.90;;;;;;5056145;28;20526;-82
2023/07/28 00:25:48;;;;;;;4.63;4.22;;;18.30;99.90;;;;;;5056513;28;20223;-81
2023/07/28 00:28:14;;;;;;;98.32;81.85;;;18.30;99.90;;;;;;5056782;28;20169;-81
2023/07/28 00:30:40;;;;;;;20.55;15.93;;;18.30;99.90;;;;;;5055062;28;20181;-80
2023/07/28 00:33:05;;;;;;;5.85;5.00;;;18.30;99.90;;;;;;5055671;28;20650;-80
2023/07/28 00:35:31;;;;;;;8.00;4.57;;;18.30;99.90;;;;;;5057202;28;20181;-81
2023/07/28 00:37:56;;;;;;;6.07;5.55;;;18.30;99.90;;;;;;5057201;28;20529;-80
2023/07/28 00:40:23;;;;;;;4.93;4.45;;;18.30;99.90;;;;;;5056251;28;20567;-79
2023/07/28 00:42:48;;;;;;;23.30;16.17;;;18.30;99.90;;;;;;5056058;28;20573;-81
2023/07/28 00:45:14;;;;;;;15.98;11.73;;;18.20;99.90;;;;;;5055936;28;20184;-80
2023/07/28 00:47:40;;;;;;;16.20;11.82;;;18.30;99.90;;;;;;5055302;28;20169;-79
2023/07/28 00:50:08;;;;;;;29.48;19.98;;;18.20;99.90;;;;;;5055640;28;20517;-79
2023/07/28 00:52:34;;;;;;;31.52;26.20;;;18.30;99.90;;;;;;5055293;28;20262;-80
2023/07/28 00:55:00;;;;;;;5.38;4.97;;;18.30;99.90;;;;;;5055173;28;20660;-80
2023/07/28 00:57:26;;;;;;;6.97;5.88;;;18.30;99.90;;;;;;5055323;28;20556;-80
2023/07/28 00:59:52;;;;;;;21.83;19.52;;;18.30;99.90;;;;;;5055336;28;20219;-79
2023/07/28 01:02:19;;;;;;;26.48;20.85;;;18.40;99.90;;;;;;5055971;28;20227;-80
2023/07/28 01:04:45;;;;;;;27.17;18.83;;;18.40;99.90;;;;;;5055236;28;20260;-80
2023/07/28 01:07:22;;;;;;;8.43;7.63;;;18.40;99.90;;;;;;5055182;28;20195;-81
2023/07/28 01:09:56;;;;;;;7.30;6.28;;;18.50;99.90;;;;;;5055212;28;20173;-79
2023/07/28 01:12:24;;;;;;;8.65;7.85;;;18.40;99.90;;;;;;5054850;28;20170;-80
2023/07/28 01:14:49;;;;;;;12.15;10.82;;;18.40;99.90;;;;;;5054437;28;20702;-80
2023/07/28 01:17:15;;;;;;;8.20;6.90;;;18.40;99.90;;;;;;5054928;28;20173;-80
2023/07/28 01:19:41;;;;;;;16.48;12.15;;;18.40;99.90;;;;;;5054466;28;20247;-80
2023/07/28 01:22:31;;;;;;;6.18;5.57;;;18.40;99.90;;;;;;5054905;28;20165;-80
2023/07/28 01:25:17;;;;;;;19.88;17.15;;;18.40;99.90;;;;;;5054925;28;20633;-81
2023/07/28 01:27:44;;;;;;;12.18;9.05;;;18.40;99.90;;;;;;5054762;28;20620;-80
2023/07/28 01:30:11;;;;;;;27.02;21.90;;;18.30;99.90;;;;;;5054181;28;20174;-80
2023/07/28 01:32:36;;;;;;;28.35;23.08;;;18.40;99.90;;;;;;5054482;28;20256;-81
2023/07/28 01:35:03;;;;;;;8.20;7.00;;;18.50;99.90;;;;;;5054589;28;20259;-80
2023/07/28 01:37:29;;;;;;;12.82;10.52;;;18.40;99.90;;;;;;5054685;28;20218;-80
2023/07/28 01:39:57;;;;;;;10.88;8.98;;;18.40;99.90;;;;;;5054300;28;20201;-79
2023/07/28 01:42:23;;;;;;;61.10;42.13;;;18.40;99.90;;;;;;5054133;28;20236;-80
2023/07/28 01:44:48;;;;;;;9.77;8.43;;;18.40;99.90;;;;;;5054099;28;20625;-80
2023/07/28 01:47:14;;;;;;;8.85;6.85;;;18.50;99.90;;;;;;5054227;28;20248;-79
2023/07/28 01:49:40;;;;;;;22.92;18.55;;;18.40;99.90;;;;;;5054240;28;20181;-80
2023/07/28 01:52:05;;;;;;;23.33;16.75;;;18.40;99.90;;;;;;5054490;28;20169;-80
2023/07/28 01:54:31;;;;;;;10.18;8.90;;;18.40;99.90;;;;;;5054644;28;20525;-80
2023/07/28 01:56:56;;;;;;;9.35;7.47;;;18.40;99.90;;;;;;5054112;28;20255;-80
2023/07/28 01:59:22;;;;;;;9.68;7.40;;;18.40;99.90;;;;;;5053466;28;20557;-80
2023/07/28 02:01:48;;;;;;;12.20;7.40;;;18.40;99.90;;;;;;5054102;28;20188;-80
2023/07/28 02:04:13;;;;;;;17.90;10.13;;;18.40;99.90;;;;;;5054167;28;20165;-79
2023/07/28 02:06:39;;;;;;;16.80;8.82;;;18.50;99.90;;;;;;5053007;28;20660;-80
2023/07/28 02:09:05;;;;;;;7.85;7.05;;;18.50;99.90;;;;;;5054660;28;20168;-80
2023/07/28 02:11:30;;;;;;;7.88;6.82;;;18.60;99.90;;;;;;5054297;28;20265;-80
2023/07/28 02:13:56;;;;;;;8.85;7.28;;;18.50;99.90;;;;;;5054414;28;20177;-80
2023/07/28 02:16:21;;;;;;;8.32;6.80;;;18.50;99.90;;;;;;5054594;28;20213;-79
2023/07/28 02:18:47;;;;;;;9.15;7.18;;;18.50;99.90;;;;;;5054155;28;20174;-80
2023/07/28 02:21:13;;;;;;;7.53;6.70;;;18.50;99.90;;;;;;5053850;28;20204;-80
2023/07/28 02:23:38;;;;;;;7.50;6.80;;;18.50;99.90;;;;;;5054093;28;20173;-80
2023/07/28 02:26:04;;;;;;;8.52;7.72;;;18.50;99.90;;;;;;5053974;28;20181;-79
2023/07/28 02:28:29;;;;;;;12.43;8.23;;;18.50;99.90;;;;;;5052424;28;20208;-80
2023/07/28 02:30:55;;;;;;;11.55;8.30;;;18.50;99.90;;;;;;5053442;28;20169;-80
2023/07/28 02:33:20;;;;;;;11.00;8.27;;;18.70;99.90;;;;;;5054163;28;20510;-81
2023/07/28 02:35:46;;;;;;;9.70;8.05;;;18.70;99.90;;;;;;5053712;28;20165;-81
2023/07/28 02:38:12;;;;;;;11.68;8.48;;;18.70;99.90;;;;;;5053956;28;20256;-80
2023/07/28 02:40:37;;;;;;;10.10;8.25;;;18.60;99.90;;;;;;5053679;28;20665;-80
2023/07/28 02:43:03;;;;;;;12.45;8.25;;;18.60;99.90;;;;;;5053116;28;20686;-80
2023/07/28 02:45:28;;;;;;;13.23;8.57;;;18.50;99.90;;;;;;5054023;28;20243;-79
2023/07/28 02:47:54;;;;;;;9.45;8.55;;;18.50;99.90;;;;;;5053890;28;20169;-80
2023/07/28 02:50:20;;;;;;;12.27;8.82;;;18.50;99.90;;;;;;5053821;28;20268;-80
2023/07/28 02:52:45;;;;;;;10.57;8.50;;;18.50;99.90;;;;;;5053456;28;20248;-80
2023/07/28 02:55:11;;;;;;;14.43;8.82;;;18.40;99.90;;;;;;5053598;28;20230;-80
2023/07/28 02:57:37;;;;;;;11.32;8.45;;;18.50;99.90;;;;;;5053125;28;20251;-81
2023/07/28 03:00:05;;;;;;;12.45;8.93;;;18.40;99.90;;;;;;5053410;28;20209;-80
2023/07/28 03:02:31;;;;;;;10.70;8.55;;;18.40;99.90;;;;;;5053624;28;20162;-80
2023/07/28 03:04:56;;;;;;;10.82;8.30;;;18.40;99.90;;;;;;5053554;28;20529;-80
2023/07/28 03:07:22;;;;;;;10.88;8.43;;;18.30;99.90;;;;;;5052782;28;20475;-80
2023/07/28 03:09:48;;;;;;;12.02;8.48;;;18.40;99.90;;;;;;5053477;28;20582;-80
2023/07/28 03:12:13;;;;;;;9.20;7.57;;;18.40;99.90;;;;;;5053075;28;20165;-81
2023/07/28 03:14:39;;;;;;;10.32;7.55;;;18.40;99.90;;;;;;5052890;28;20299;-80
2023/07/28 03:17:05;;;;;;;8.40;6.82;;;18.40;99.90;;;;;;5053222;28;20528;-79
2023/07/28 03:19:30;;;;;;;10.70;7.47;;;18.40;99.90;;;;;;5052938;28;20617;-81
2023/07/28 03:21:56;;;;;;;8.68;7.30;;;18.40;99.90;;;;;;5052949;28;20191;-81
2023/07/28 03:24:21;;;;;;;10.27;7.10;;;18.40;99.90;;;;;;5052710;28;20169;-79
2023/07/28 03:26:47;;;;;;;7.85;6.90;;;18.40;99.90;;;;;;5052720;28;20231;-79
2023/07/28 03:29:13;;;;;;;10.00;7.40;;;18.40;99.90;;;;;;5053055;28;20632;-80
2023/07/28 03:31:38;;;;;;;8.98;7.10;;;18.40;99.90;;;;;;5052630;28;20174;-81
2023/07/28 03:34:04;;;;;;;8.40;6.80;;;18.50;99.90;;;;;;5052689;28;20165;-80
2023/07/28 03:36:30;;;;;;;10.35;7.13;;;18.40;99.90;;;;;;5052866;28;20611;-80
2023/07/28 03:38:55;;;;;;;8.77;7.50;;;18.40;99.90;;;;;;5052827;28;20183;-80
2023/07/28 03:41:21;;;;;;;10.57;6.88;;;18.40;99.90;;;;;;5052052;28;20307;-80
2023/07/28 03:43:46;;;;;;;12.00;6.75;;;18.40;99.90;;;;;;5054547;28;20223;-80
2023/07/28 03:46:12;;;;;;;8.10;6.35;;;18.40;99.90;;;;;;5055795;28;20668;-80
2023/07/28 03:48:38;;;;;;;6.85;6.05;;;18.50;99.90;;;;;;5056398;28;20166;-80
2023/07/28 03:51:04;;;;;;;8.05;6.45;;;18.50;99.90;;;;;;5056145;28;20165;-80
2023/07/28 03:53:29;;;;;;;6.82;6.13;;;18.40;99.90;;;;;;5056077;28;20166;-81
2023/07/28 03:55:57;;;;;;;6.85;6.03;;;18.40;99.90;;;;;;5055888;28;20165;-80
2023/07/28 03:58:24;;;;;;;7.05;5.88;;;18.40;99.90;;;;;;5055946;28;20272;-80
2023/07/28 04:00:53;;;;;;;6.50;5.63;;;18.50;99.90;;;;;;5056062;28;20274;-79
2023/07/28 04:03:18;;;;;;;8.82;6.00;;;18.50;99.90;;;;;;5056089;28;20177;-79
2023/07/28 04:05:44;;;;;;;6.40;5.80;;;18.50;99.90;;;;;;5055929;28;20181;-80
2023/07/28 04:08:09;;;;;;;6.55;5.88;;;18.50;99.90;;;;;;5055800;28;20594;-80
2023/07/28 04:10:35;;;;;;;6.75;6.15;;;18.50;99.90;;;;;;5053923;28;20184;-80
2023/07/28 04:13:01;;;;;;;6.43;5.90;;;18.50;99.90;;;;;;5055613;28;20208;-81
2023/07/28 04:15:26;;;;;;;7.00;6.30;;;18.50;99.90;;;;;;5055433;28;20210;-80
2023/07/28 04:17:52;;;;;;;7.32;5.97;;;18.50;99.90;;;;;;5056005;28;20188;-80
2023/07/28 04:20:17;;;;;;;8.57;5.65;;;18.50;99.90;;;;;;5055343;28;20679;-81
2023/07/28 04:22:43;;;;;;;6.63;5.85;;;18.60;99.90;;;;;;5055570;28;20165;-79
2023/07/28 04:25:08;;;;;;;6.70;6.10;;;18.50;99.90;;;;;;5055773;28;20268;-80
2023/07/28 04:27:34;;;;;;;7.15;6.07;;;18.60;99.90;;;;;;5055516;28;20645;-80
2023/07/28 04:30:00;;;;;;;7.15;5.70;;;18.50;99.90;;;;;;5053682;28;20507;-81
2023/07/28 04:32:26;;;;;;;5.93;5.40;;;18.50;99.90;;;;;;5055125;28;20216;-81
2023/07/28 04:34:51;;;;;;;8.75;5.30;;;18.50;99.90;;;;;;5055380;28;20181;-79
2023/07/28 04:37:17;;;;;;;5.90;5.32;;;18.70;99.90;;;;;;5055711;28;20256;-80
2023/07/28 04:39:43;;;;;;;6.10;5.18;;;18.70;99.90;;;;;;5054813;28;20205;-80
2023/07/28 04:42:09;;;;;;;7.13;5.65;;;18.60;99.90;;;;;;5055001;28;20221;-79
2023/07/28 04:44:37;;;;;;;5.60;5.10;;;18.70;99.90;;;;;;5054832;28;20192;-81
2023/07/28 04:47:03;;;;;;;5.72;5.32;;;18.70;99.90;;;;;;5054933;28;20245;-81
2023/07/28 04:49:29;;;;;;;5.75;5.20;;;18.80;99.90;;;;;;5055153;28;20281;-80
2023/07/28 04:51:54;;;;;;;8.38;5.15;;;18.80;99.90;;;;;;5055043;28;20176;-80
2023/07/28 04:54:20;;;;;;;5.35;4.70;;;18.90;99.90;;;;;;5053001;28;20200;-79
2023/07/28 04:56:46;;;;;;;4.88;4.47;;;18.90;99.90;;;;;;5054744;28;20172;-79
2023/07/28 04:59:11;;;;;;;7.25;4.72;;;18.90;99.90;;;;;;5054783;28;20201;-80
2023/07/28 05:01:37;;;;;;;4.32;4.00;;;18.90;99.90;;;;;;5054953;28;20173;-80
2023/07/28 05:04:03;;;;;;;3.90;3.60;;;18.90;99.90;;;;;;5036547;28;20169;-80
2023/07/28 05:06:28;;;;;;;4.10;3.72;;;19.00;99.90;;;;;;5054490;28;20633;-79
2023/07/28 05:08:54;;;;;;;4.13;3.72;;;18.90;99.90;;;;;;5054320;28;20264;-79
2023/07/28 05:11:19;;;;;;;4.13;3.40;;;19.00;99.90;;;;;;5054480;28;20165;-79
2023/07/28 05:13:45;;;;;;;4.18;3.78;;;19.10;99.90;;;;;;5054265;28;20268;-78
2023/07/28 05:16:11;;;;;;;3.53;3.33;;;19.10;99.90;;;;;;5054595;28;20536;-79
2023/07/28 05:18:37;;;;;;;3.80;3.50;;;19.10;99.90;;;;;;5054068;28;20218;-79
2023/07/28 05:21:02;;;;;;;4.55;3.40;;;19.00;99.90;;;;;;5053897;28;20223;-81
2023/07/28 05:23:28;;;;;;;3.88;3.20;;;19.00;99.90;;;;;;5054453;28;20252;-78
2023/07/28 05:25:53;;;;;;;3.10;2.90;;;19.00;99.90;;;;;;5054205;28;20211;-80
2023/07/28 05:28:19;;;;;;;4.72;2.83;;;18.90;99.90;;;;;;5053361;28;20568;-79
2023/07/28 05:30:45;;;;;;;3.22;2.95;;;18.90;99.90;;;;;;5053931;28;20173;-79
2023/07/28 05:33:10;;;;;;;3.67;2.90;;;19.00;99.90;;;;;;5053859;28;20182;-79
2023/07/28 05:35:36;;;;;;;2.60;2.40;;;19.00;99.90;;;;;;5054246;28;20556;-79
2023/07/28 05:38:02;;;;;;;4.50;2.80;;;19.00;99.90;;;;;;5054383;28;20185;-79
2023/07/28 05:40:27;;;;;;;3.15;2.95;;;19.10;99.90;;;;;;5053868;28;20280;-79
2023/07/28 05:42:53;;;;;;;4.90;4.60;;;19.10;99.90;;;;;;5053507;28;20639;-79
2023/07/28 05:45:19;;;;;;;2.83;2.60;;;19.10;99.90;;;;;;5053650;28;20165;-80
2023/07/28 05:47:44;;;;;;;2.70;2.50;;;19.10;99.90;;;;;;5053847;28;20620;-79
2023/07/28 05:50:10;;;;;;;3.25;2.50;;;19.20;99.90;;;;;;5053183;28;20212;-80
2023/07/28 05:52:35;;;;;;;2.53;2.33;;;19.20;99.90;;;;;;5053710;28;20197;-80
2023/07/28 05:55:01;;;;;;;2.60;2.40;;;19.20;99.90;;;;;;5052464;28;20177;-79
2023/07/28 05:57:27;;;;;;;3.58;2.05;;;19.20;99.90;;;;;;5052827;28;20680;-79
2023/07/28 05:59:52;;;;;;;1.80;1.70;;;19.20;99.90;;;;;;5053584;28;20335;-79
2023/07/28 06:02:18;;;;;;;3.22;1.70;;;19.10;99.90;;;;;;5053290;28;20181;-79
2023/07/28 06:04:44;;;;;;;1.90;1.50;;;19.20;99.90;;;;;;5052860;28;20173;-79
2023/07/28 06:07:10;;;;;;;2.53;1.23;;;19.10;99.90;;;;;;5052602;28;20187;-79
2023/07/28 06:09:35;;;;;;;2.85;1.40;;;19.10;99.90;;;;;;5053655;28;20182;-79
2023/07/28 06:12:01;;;;;;;1.45;1.35;;;19.10;99.90;;;;;;5052887;28;20645;-78
2023/07/28 06:14:27;;;;;;;1.38;1.35;;;19.30;99.90;;;;;;5052903;28;20256;-80
2023/07/28 06:16:52;;;;;;;1.48;1.38;;;19.30;99.90;;;;;;5052683;28;20207;-80
2023/07/28 06:19:23;;;;;;;1.50;1.40;;;19.30;99.90;;;;;;5052580;28;20653;-79
2023/07/28 06:21:52;;;;;;;2.45;1.60;;;19.40;99.90;;;;;;5053488;28;20196;-79
2023/07/28 06:24:18;;;;;;;1.90;1.80;;;19.40;99.90;;;;;;5052978;28;20679;-78
2023/07/28 06:26:44;;;;;;;2.20;2.10;;;19.40;99.90;;;;;;5052340;28;20315;-80
2023/07/28 06:29:09;;;;;;;1.92;1.80;;;19.50;99.90;;;;;;5053241;28;20239;-78
2023/07/28 06:31:35;;;;;;;2.10;2.00;;;19.60;99.90;;;;;;5053015;28;20169;-79
2023/07/28 06:34:01;;;;;;;2.10;2.00;;;19.90;99.90;;;;;;5052608;28;20603;-80
2023/07/28 06:36:27;;;;;;;2.05;1.95;;;20.50;99.90;;;;;;5052786;28;20177;-78
2023/07/28 06:38:55;;;;;;;2.17;1.95;;;20.70;99.90;;;;;;5052355;28;20173;-78
2023/07/28 06:41:20;;;;;;;2.58;2.00;;;20.70;99.90;;;;;;5052106;28;20233;-79
2023/07/28 06:43:48;;;;;;;1.90;1.80;;;20.80;99.90;;;;;;5051296;28;20192;-80
2023/07/28 06:46:14;;;;;;;2.10;1.80;;;20.60;99.90;;;;;;5052719;28;20173;-79
2023/07/28 06:48:40;;;;;;;2.15;1.60;;;20.60;99.90;;;;;;5052723;28;20216;-78
2023/07/28 06:51:06;;;;;;;2.38;1.80;;;20.40;99.90;;;;;;5052337;28;20232;-77
2023/07/28 06:53:31;;;;;;;2.90;1.80;;;20.40;99.90;;;;;;5052575;28;20617;-77
2023/07/28 06:55:57;;;;;;;2.00;1.42;;;20.40;99.90;;;;;;5052492;28;20188;-78
2023/07/28 06:58:23;;;;;;;1.85;1.63;;;20.50;99.90;;;;;;5050920;28;20657;-79
2023/07/28 07:00:48;;;;;;;1.42;1.30;;;20.70;99.90;;;;;;5051986;28;20204;-78
2023/07/28 07:03:14;;;;;;;1.58;1.25;;;20.80;99.90;;;;;;5052363;28;20529;-80
2023/07/28 07:05:40;;;;;;;1.45;1.35;;;21.10;99.90;;;;;;5052487;28;20169;-79
2023/07/28 07:08:05;;;;;;;2.17;1.30;;;21.20;99.90;;;;;;5052303;28;20176;-79
2023/07/28 07:10:31;;;;;;;1.38;1.27;;;21.30;99.90;;;;;;5053089;28;20252;-79
2023/07/28 07:12:57;;;;;;;1.85;1.10;;;21.50;99.90;;;;;;5051855;28;20172;-80
2023/07/28 07:15:22;;;;;;;1.42;1.02;;;21.70;99.90;;;;;;5052320;28;20177;-79
2023/07/28 07:17:48;;;;;;;1.77;1.10;;;22.10;99.90;;;;;;5053578;28;20172;-79
2023/07/28 07:20:15;;;;;;;1.33;0.95;;;22.50;99.90;;;;;;5056429;28;20541;-80
2023/07/28 07:22:41;;;;;;;1.02;1.02;;;23.20;99.90;;;;;;5056590;28;20165;-81
2023/07/28 07:25:07;;;;;;;1.00;1.00;;;23.90;99.90;;;;;;5056549;28;20177;-76
2023/07/28 07:27:33;;;;;;;1.10;0.70;;;24.90;99.90;;;;;;5056349;28;20256;-73
2023/07/28 07:29:58;;;;;;;1.15;0.85;;;25.40;99.90;;;;;;5056307;28;20320;-73
2023/07/28 07:32:24;;;;;;;1.48;0.90;;;25.60;99.90;;;;;;5055692;28;20180;-73
2023/07/28 07:34:49;;;;;;;0.98;0.90;;;26.00;99.90;;;;;;5056131;28;20264;-73
2023/07/28 07:37:15;;;;;;;1.58;1.13;;;25.70;99.90;;;;;;5056200;28;20238;-72
2023/07/28 07:39:43;;;;;;;1.08;0.80;;;25.90;99.90;;;;;;5056044;28;20205;-72
2023/07/28 07:42:10;;;;;;;1.52;0.80;;;26.60;99.90;;;;;;5054974;28;20703;-72
2023/07/28 07:44:36;;;;;;;0.80;0.80;;;27.40;99.90;;;;;;5055935;28;20185;-72
2023/07/28 07:47:12;;;;;;;1.75;0.80;;;27.30;99.90;;;;;;5055715;28;20675;-71
2023/07/28 07:49:38;;;;;;;1.00;1.00;;;27.40;99.90;;;;;;5055986;28;20167;-71
2023/07/28 07:52:05;;;;;;;2.75;1.00;;;27.00;99.90;;;;;;5055829;28;20244;-71
2023/07/28 07:54:30;;;;;;;2.63;0.80;;;26.20;99.90;;;;;;5055363;28;20629;-71
2023/07/28 07:56:56;;;;;;;1.08;0.90;;;25.80;99.90;;;;;;5055363;28;20264;-71
2023/07/28 07:59:22;;;;;;;0.93;0.93;;;26.00;99.90;;;;;;5055579;28;20201;-71
2023/07/28 08:01:47;;;;;;;1.92;1.08;;;25.60;99.90;;;;;;5055481;28;20287;-70
2023/07/28 08:04:13;;;;;;;1.02;1.02;;;25.80;99.90;;;;;;5055454;28;20515;-72
2023/07/28 08:06:38;;;;;;;2.50;1.65;;;25.20;99.90;;;;;;5055261;28;20180;-72
2023/07/28 08:09:04;;;;;;;4.47;1.75;;;24.90;99.90;;;;;;5055551;28;20688;-72
2023/07/28 08:11:29;;;;;;;2.45;1.88;;;24.50;99.90;;;;;;5055238;28;20174;-70
2023/07/28 08:13:55;;;;;;;2.10;2.00;;;24.10;99.90;;;;;;5055013;28;20248;-71
2023/07/28 08:16:21;;;;;;;2.08;1.85;;;24.20;99.90;;;;;;5054730;28;20173;-71
2023/07/28 08:18:46;;;;;;;2.25;2.13;;;23.60;99.90;;;;;;5055082;28;20196;-72
2023/07/28 08:21:12;;;;;;;2.80;2.05;;;23.00;99.90;;;;;;5055133;28;20739;-71
2023/07/28 08:23:37;;;;;;;3.40;1.77;;;22.80;99.90;;;;;;5055121;28;20166;-71
2023/07/28 08:26:03;;;;;;;2.00;1.77;;;22.50;99.90;;;;;;5054917;28;20180;-72
2023/07/28 08:28:29;;;;;;;3.78;2.03;;;22.70;99.90;;;;;;5054876;28;20169;-71
2023/07/28 08:30:58;;;;;;;2.45;2.05;;;22.80;99.90;;;;;;5054207;28;20227;-72
2023/07/28 08:33:24;;;;;;;3.03;1.67;;;22.90;99.90;;;;;;5053230;28;20173;-72
2023/07/28 08:35:50;;;;;;;3.75;1.80;;;22.80;99.90;;;;;;5055034;28;20181;-73
2023/07/28 08:38:16;;;;;;;2.25;1.70;;;23.00;99.90;;;;;;5054876;28;20235;-71
2023/07/28 08:40:44;;;;;;;2.35;1.52;;;23.10;99.90;;;;;;5054319;28;20213;-72
2023/07/28 08:43:09;;;;;;;3.75;1.90;;;23.30;99.90;;;;;;5054409;28;20768;-71
2023/07/28 08:45:36;;;;;;;1.85;1.45;;;23.30;99.90;;;;;;5055022;28;20187;-72
2023/07/28 08:48:02;;;;;;;1.50;1.40;;;23.10;99.90;;;;;;5054807;28;20161;-73
2023/07/28 08:50:27;;;;;;;1.38;1.23;;;23.10;99.90;;;;;;5054815;28;20250;-72
2023/07/28 08:52:54;;;;;;;2.05;1.50;;;22.80;99.90;;;;;;5054835;28;20158;-72
2023/07/28 08:55:19;;;;;;;1.98;1.30;;;22.70;99.90;;;;;;5054802;28;20165;-72
2023/07/28 08:57:45;;;;;;;1.73;1.63;;;22.70;99.90;;;;;;5054470;28;20185;-72
2023/07/28 09:00:13;;;;;;;2.85;1.50;;;22.60;99.90;;;;;;5054045;28;20213;-71
2023/07/28 09:02:40;;;;;;;2.78;1.10;;;22.60;99.90;;;;;;5054284;28;20241;-74
2023/07/28 09:05:06;;;;;;;1.60;1.00;;;22.30;99.90;;;;;;5054121;28;20212;-70
2023/07/28 09:07:38;;;;;;;1.15;0.93;;;22.40;99.90;;;;;;5053353;28;20652;-71
2023/07/28 09:10:05;;;;;;;1.33;1.00;;;22.40;99.90;;;;;;5052945;28;20265;-71
2023/07/28 09:12:33;;;;;;;1.02;0.70;;;22.30;99.90;;;;;;5054013;28;20211;-71
2023/07/28 09:14:59;;;;;;;1.90;0.95;;;22.00;99.90;;;;;;5054162;28;20750;-70
2023/07/28 09:17:24;;;;;;;2.20;1.08;;;21.80;99.90;;;;;;5053715;28;20271;-71
2023/07/28 09:19:54;;;;;;;1.10;1.00;;;21.80;99.90;;;;;;5053942;28;20217;-70
2023/07/28 09:22:20;;;;;;;1.77;0.93;;;21.80;99.90;;;;;;5054469;28;20608;-71
2023/07/28 09:24:47;;;;;;;0.80;0.80;;;21.70;99.90;;;;;;5054622;28;20181;-71
2023/07/28 09:27:29;;;;;;;1.20;1.10;;;21.80;99.90;;;;;;5054086;28;20307;-72
2023/07/28 09:29:55;;;;;;;2.85;1.02;;;21.80;99.90;;;;;;5054161;28;20166;-71
2023/07/28 09:32:36;;;;;;;1.08;0.88;;;21.80;99.90;;;;;;5054091;28;20259;-71
2023/07/28 09:35:10;;;;;;;3.15;1.00;;;21.90;99.90;;;;;;5053400;28;20170;-71
2023/07/28 09:37:41;;;;;;;1.95;0.80;;;22.00;99.90;;;;;;5053835;28;20168;-71
2023/07/28 09:40:11;;;;;;;3.15;1.73;;;22.40;99.90;;;;;;5053719;28;20272;-71
2023/07/28 09:42:38;;;;;;;1.13;1.02;;;22.90;99.90;;;;;;5052960;28;20208;-71
2023/07/28 09:45:06;;;;;;;1.13;1.00;;;23.50;99.90;;;;;;5053918;28;20751;-72
2023/07/28 09:47:37;;;;;;;2.10;0.98;;;24.30;99.90;;;;;;5053901;28;20162;-72
2023/07/28 09:50:04;;;;;;;2.28;1.25;;;24.10;99.90;;;;;;5053897;28;20173;-72
2023/07/28 09:52:45;;;;;;;1.42;1.33;;;24.30;99.90;;;;;;5053668;28;20168;-72
2023/07/28 09:55:13;;;;;;;1.77;1.30;;;24.10;99.90;;;;;;5053670;28;20169;-72
2023/07/28 09:57:49;;;;;;;1.42;1.33;;;24.10;99.90;;;;;;5052649;28;20221;-72
2023/07/28 10:00:15;;;;;;;3.42;1.98;;;24.10;99.90;;;;;;5051787;28;20219;-72
2023/07/28 10:02:41;;;;;;;2.75;2.25;;;24.40;99.90;;;;;;5053447;28;20563;-72
2023/07/28 10:05:07;;;;;;;3.80;2.42;;;24.50;99.90;;;;;;5053512;28;20177;-71
2023/07/28 10:07:35;;;;;;;2.42;2.33;;;24.30;99.90;;;;;;5051841;28;20227;-71
2023/07/28 10:10:07;;;;;;;3.42;3.22;;;24.50;99.90;;;;;;5053417;28;20166;-70
2023/07/28 10:12:46;;;;;;;3.17;2.88;;;24.20;99.90;;;;;;5052364;28;20166;-71
2023/07/28 10:15:17;;;;;;;3.05;2.80;;;24.50;99.90;;;;;;5053164;28;20184;-72
2023/07/28 10:17:54;;;;;;;2.15;2.05;;;25.20;99.90;;;;;;5051519;28;20181;-73
2023/07/28 10:20:38;;;;;;;3.28;1.95;;;25.70;99.90;;;;;;5053694;28;20204;-73
2023/07/28 10:23:24;;;;;;;2.55;1.92;;;25.70;99.90;;;;;;5051523;28;20169;-72
2023/07/28 10:25:59;;;;;;;4.40;1.73;;;25.50;99.90;;;;;;5051877;28;20181;-71
2023/07/28 10:28:38;;;;;;;1.58;1.40;;;24.90;99.90;;;;;;5052775;28;20706;-71
2023/07/28 10:31:10;;;;;;;1.63;1.30;;;24.50;99.90;;;;;;5052586;28;20191;-71
2023/07/28 10:33:41;;;;;;;1.45;1.30;;;24.40;99.90;;;;;;5052985;28;20219;-71
2023/07/28 10:36:38;;;;;;;1.23;1.13;;;24.80;99.90;;;;;;5053086;28;20170;-71
2023/07/28 10:39:17;;;;;;;3.67;1.50;;;24.70;99.90;;;;;;5052552;28;20247;-72
2023/07/28 10:42:06;;;;;;;1.45;1.20;;;24.90;99.90;;;;;;5052078;28;20216;-72
2023/07/28 10:44:32;;;;;;;1.90;1.20;;;24.90;99.90;;;;;;5052659;28;20169;-72
2023/07/28 10:46:58;;;;;;;2.22;1.23;;;25.10;99.90;;;;;;5052547;28;20473;-72
2023/07/28 10:49:27;;;;;;;2.53;1.08;;;25.70;99.90;;;;;;5052634;28;20189;-73
2023/07/28 10:51:54;;;;;;;1.98;1.88;;;26.20;99.90;;;;;;5051941;28;20169;-72
2023/07/28 10:54:20;;;;;;;4.40;2.30;;;26.20;99.90;;;;;;5052477;28;20177;-72
2023/07/28 10:56:47;;;;;;;2.65;2.55;;;26.00;99.90;;;;;;5052280;28;20205;-73
2023/07/28 10:59:12;;;;;;;3.03;2.90;;;25.50;99.90;;;;;;5052744;28;20249;-72
2023/07/28 11:01:40;;;;;;;3.45;3.15;;;25.30;99.90;;;;;;5052158;28;20177;-72
2023/07/28 11:04:17;;;;;;;4.43;4.03;;;25.10;99.90;;;;;;5051535;28;20157;-72
2023/07/28 11:06:48;;;;;;;4.78;4.40;;;25.20;99.90;;;;;;5051692;28;20196;-71
2023/07/28 11:09:16;;;;;;;4.18;3.97;;;25.30;99.90;;;;;;5051768;28;20177;-73
2023/07/28 11:11:42;;;;;;;3.97;3.70;;;25.10;99.90;;;;;;5052145;28;20693;-72
2023/07/28 11:14:09;;;;;;;4.28;3.97;;;24.80;99.90;;;;;;5052186;28;20473;-73
2023/07/28 11:16:37;;;;;;;3.58;3.38;;;24.90;99.90;;;;;;5052781;28;20174;-71
2023/07/28 11:19:07;;;;;;;4.25;3.95;;;25.20;99.90;;;;;;5052381;28;20197;-73
2023/07/28 11:21:40;;;;;;;4.25;3.92;;;25.40;99.90;;;;;;5052359;28;20217;-72
2023/07/28 11:24:10;;;;;;;4.25;3.85;;;25.50;99.90;;;;;;5051775;28;20165;-72
2023/07/28 11:26:37;;;;;;;6.43;3.67;;;25.80;99.90;;;;;;5051618;28;20177;-72
2023/07/28 11:29:03;;;;;;;3.63;3.33;;;25.90;99.90;;;;;;5052690;28;20165;-72
2023/07/28 11:31:29;;;;;;;2.80;2.70;;;25.90;99.90;;;;;;5052520;28;20636;-72
2023/07/28 11:33:55;;;;;;;3.00;2.90;;;25.80;99.90;;;;;;5051665;28;20276;-72
2023/07/28 11:36:28;;;;;;;3.15;2.95;;;25.70;99.90;;;;;;5052604;28;20169;-72
2023/07/28 11:38:56;;;;;;;3.13;2.92;;;26.00;99.90;;;;;;5050253;28;20532;-72
2023/07/28 11:41:23;;;;;;;2.45;2.35;;;26.20;99.90;;;;;;5050108;28;20260;-72
2023/07/28 11:43:49;;;;;;;2.42;2.33;;;26.00;99.90;;;;;;5052415;28;20180;-72
2023/07/28 11:46:34;;;;;;;2.88;2.67;;;26.70;99.90;;;;;;5051654;28;20180;-71
2023/07/28 11:49:26;;;;;;;3.28;3.00;;;27.10;99.90;;;;;;5051879;28;20554;-73
2023/07/28 11:51:54;;;;;;;2.92;2.60;;;26.60;99.90;;;;;;5048336;28;20185;-71
2023/07/28 11:54:25;;;;;;;2.80;2.60;;;26.00;99.90;;;;;;5051516;28;20173;-71
2023/07/28 11:56:55;;;;;;;2.17;2.08;;;25.70;99.90;;;;;;5052005;28;20664;-73
2023/07/28 11:59:21;;;;;;;2.35;2.25;;;25.00;99.90;;;;;;5051225;28;20224;-70
2023/07/28 12:01:57;;;;;;;1.95;1.85;;;25.20;99.90;;;;;;5051540;28;20239;-71
2023/07/28 12:04:40;;;;;;;4.85;1.90;;;25.10;99.90;;;;;;5052903;28;20534;-71
2023/07/28 12:07:13;;;;;;;2.22;2.10;;;25.70;99.90;;;;;;5054847;28;20173;-71
2023/07/28 12:09:48;;;;;;;2.20;2.00;;;25.60;99.90;;;;;;5055029;28;20170;-71
2023/07/28 12:12:16;;;;;;;1.88;1.77;;;25.50;99.90;;;;;;5056021;28;20165;-71
2023/07/28 12:14:41;;;;;;;2.20;1.50;;;25.50;99.90;;;;;;5055368;28;20181;-70
2023/07/28 12:17:17;;;;;;;2.40;1.80;;;25.80;99.90;;;;;;5055218;28;20190;-70
2023/07/28 12:20:00;;;;;;;1.65;1.55;;;25.90;99.90;;;;;;5055324;28;20252;-70
2023/07/28 12:22:27;;;;;;;2.05;1.67;;;26.00;99.90;;;;;;5054851;28;20210;-71
2023/07/28 12:24:56;;;;;;;1.73;1.63;;;26.00;99.90;;;;;;5054989;28;20177;-71
2023/07/28 12:27:24;;;;;;;2.33;1.50;;;25.80;99.90;;;;;;5037501;28;20176;-71
2023/07/28 12:29:51;;;;;;;1.75;1.55;;;25.70;99.90;;;;;;5055427;28;20186;-71
2023/07/28 12:32:17;;;;;;;1.58;1.48;;;25.60;99.90;;;;;;5054697;28;20200;-72
2023/07/28 12:34:42;;;;;;;2.05;1.95;;;25.70;99.90;;;;;;5055121;28;20668;-72
2023/07/28 12:37:08;;;;;;;1.90;1.80;;;25.50;99.90;;;;;;5054490;28;20269;-71
2023/07/28 12:39:38;;;;;;;1.95;1.80;;;25.50;99.90;;;;;;5054625;28;20245;-72
2023/07/28 12:42:06;;;;;;;3.55;1.55;;;25.90;99.90;;;;;;5054377;28;20213;-73
2023/07/28 12:44:32;;;;;;;1.65;1.55;;;26.00;99.90;;;;;;5053891;28;20530;-72
2023/07/28 12:46:57;;;;;;;1.98;1.88;;;26.20;99.90;;;;;;5054645;28;20170;-72